Terminal Aerodrome Forecast
Issued by NWS

Home | Current Version | Previous Version | Text Only | Print | Product List | Glossary On
Versions: 1 2 3 4 5 6 7 8 9 10 11 12 13 14 15
820
FTUS41 KPBZ 070530
TAFFKL
TAF
KFKL 070530Z 0706/0806 27009G16KT 2SM BR OVC006
     FM070800 25008KT P6SM OVC008
     FM071100 26008KT P6SM OVC015
     FM071400 25008KT P6SM BKN025
     FM071500 26009KT P6SM BKN035
      AMD NOT SKED=

USA.gov is the U.S. government's official web portal to all federal, state and local government web resources and services.